Time;durP1;ratioP1;P1;durP2;ratioP2;P2;SDS_P1;SDS_P2;PMS_P1;PMS_P2;Temp;Humidity;BMP_temperature;BMP_pressure;BME280_temperature;BME280_humidity;BME280_pressure;Samples;Min_cycle;Max_cycle;Signal;HPM_P1;HPM_P2
2022/04/08 00:02:13;;;;;;;3.70;1.10;;;17.70;67.50;;;;;;5013615;28;20022;-66
2022/04/08 00:04:39;;;;;;;2.65;0.90;;;17.70;67.60;;;;;;5013355;28;20026;-66
2022/04/08 00:07:05;;;;;;;2.70;0.80;;;17.70;67.60;;;;;;5013419;28;20030;-66
2022/04/08 00:09:30;;;;;;;1.65;0.57;;;17.70;67.70;;;;;;5013512;28;20029;-66
2022/04/08 00:11:57;;;;;;;4.35;0.93;;;17.70;67.70;;;;;;5013505;28;20560;-66
2022/04/08 00:14:23;;;;;;;2.22;1.02;;;17.70;67.70;;;;;;5012090;28;20080;-66
2022/04/08 00:16:49;;;;;;;2.42;0.88;;;17.60;67.60;;;;;;5012302;28;20026;-66
2022/04/08 00:19:14;;;;;;;1.83;0.85;;;17.60;67.60;;;;;;5013114;28;20018;-66
2022/04/08 00:21:40;;;;;;;1.50;0.82;;;17.70;67.70;;;;;;5012090;28;20018;-66
2022/04/08 00:24:07;;;;;;;5.95;1.00;;;17.60;67.70;;;;;;5013141;28;20034;-66
2022/04/08 00:26:33;;;;;;;1.00;0.80;;;17.60;67.60;;;;;;5017473;28;20100;-66
2022/04/08 00:28:58;;;;;;;2.13;0.73;;;17.60;67.70;;;;;;5031583;28;20467;-66
2022/04/08 00:31:24;;;;;;;1.50;0.80;;;17.60;67.70;;;;;;5031722;28;20399;-66
2022/04/08 00:33:50;;;;;;;2.35;0.82;;;17.60;67.80;;;;;;5032700;28;20033;-66
2022/04/08 00:36:15;;;;;;;2.25;0.80;;;17.60;67.80;;;;;;5013001;28;20060;-66
2022/04/08 00:38:41;;;;;;;3.15;0.60;;;17.60;67.80;;;;;;5013023;28;20037;-66
2022/04/08 00:41:07;;;;;;;1.75;1.00;;;17.60;67.80;;;;;;5012899;28;20032;-66
2022/04/08 00:43:33;;;;;;;1.38;0.80;;;17.60;67.80;;;;;;5013112;28;20033;-66
2022/04/08 00:45:59;;;;;;;2.25;1.00;;;17.60;67.80;;;;;;5011793;28;20547;-66
2022/04/08 00:48:25;;;;;;;1.92;0.80;;;17.60;67.90;;;;;;5012632;28;20037;-66
2022/04/08 00:50:51;;;;;;;1.23;0.73;;;17.60;67.80;;;;;;5012820;28;20034;-66
2022/04/08 00:53:16;;;;;;;2.08;0.73;;;17.60;67.90;;;;;;5011567;28;20108;-66
2022/04/08 00:55:42;;;;;;;1.33;0.70;;;17.60;67.90;;;;;;4995344;28;20369;-66
2022/04/08 00:58:08;;;;;;;1.60;0.82;;;17.60;67.90;;;;;;4995174;28;20500;-66
2022/04/08 01:00:35;;;;;;;2.13;0.63;;;17.60;67.90;;;;;;5011552;28;20018;-66
2022/04/08 01:03:01;;;;;;;1.25;0.75;;;17.60;67.90;;;;;;5011155;28;20014;-66
2022/04/08 01:05:27;;;;;;;1.75;0.70;;;17.50;67.80;;;;;;4995344;28;20080;-66
2022/04/08 01:07:53;;;;;;;2.58;0.90;;;17.50;67.90;;;;;;5011550;28;20034;-66
2022/04/08 01:10:19;;;;;;;1.88;0.90;;;17.50;67.90;;;;;;5011177;28;20550;-66
2022/04/08 01:12:45;;;;;;;2.00;0.73;;;17.50;68.00;;;;;;5011599;28;20026;-66
2022/04/08 01:15:10;;;;;;;2.97;1.00;;;17.50;68.00;;;;;;5012545;28;20052;-66
2022/04/08 01:17:36;;;;;;;1.42;0.82;;;17.50;68.00;;;;;;5011313;28;20463;-66
2022/04/08 01:20:03;;;;;;;2.83;0.80;;;17.50;68.00;;;;;;5012471;28;20469;-66
2022/04/08 01:22:29;;;;;;;2.20;0.57;;;17.50;68.00;;;;;;4994902;28;20481;-66
2022/04/08 01:25:02;;;;;;;1.48;0.65;;;17.50;68.00;;;;;;5012310;28;20022;-66
2022/04/08 01:27:28;;;;;;;1.20;0.52;;;17.50;68.00;;;;;;5023108;28;20061;-66
2022/04/08 01:29:54;;;;;;;1.60;0.50;;;17.50;68.10;;;;;;5032298;28;20029;-66
2022/04/08 01:32:20;;;;;;;1.27;0.60;;;17.50;68.00;;;;;;5031766;28;20022;-66
2022/04/08 01:34:49;;;;;;;2.45;0.80;;;17.50;68.00;;;;;;5032065;28;20498;-66
2022/04/08 01:37:15;;;;;;;2.17;0.70;;;17.50;68.10;;;;;;5032007;28;20052;-66
2022/04/08 01:39:41;;;;;;;1.38;0.80;;;17.50;68.10;;;;;;5032198;28;20024;-66
2022/04/08 01:42:07;;;;;;;2.30;0.60;;;17.50;68.10;;;;;;5031992;28;20029;-66
2022/04/08 01:44:34;;;;;;;3.22;0.70;;;17.40;68.00;;;;;;5030751;28;20073;-66
2022/04/08 01:47:00;;;;;;;2.25;0.63;;;17.40;68.10;;;;;;5030484;28;20018;-66
2022/04/08 01:49:26;;;;;;;2.97;1.15;;;17.50;68.20;;;;;;5031959;28;20033;-66
2022/04/08 01:51:51;;;;;;;0.55;0.55;;;17.50;68.20;;;;;;5031978;28;20396;-66
2022/04/08 01:54:17;;;;;;;2.83;0.80;;;17.40;68.20;;;;;;5031705;28;20052;-66
2022/04/08 01:56:42;;;;;;;1.25;0.73;;;17.40;68.20;;;;;;5030964;28;20030;-66
2022/04/08 01:59:08;;;;;;;1.20;0.60;;;17.40;68.10;;;;;;5035568;28;20476;-66
2022/04/08 02:01:34;;;;;;;3.33;0.90;;;17.40;68.20;;;;;;5035406;28;20026;-66
2022/04/08 02:03:59;;;;;;;1.17;0.70;;;17.50;68.20;;;;;;5035563;28;20033;-66
2022/04/08 02:06:25;;;;;;;1.50;0.60;;;17.40;68.20;;;;;;5035481;28;20025;-66
2022/04/08 02:08:53;;;;;;;1.50;0.70;;;17.40;68.20;;;;;;5035516;28;20108;-66
2022/04/08 02:11:18;;;;;;;3.30;0.85;;;17.40;68.20;;;;;;5035523;28;20109;-66
2022/04/08 02:13:44;;;;;;;1.35;0.60;;;17.50;68.30;;;;;;5035418;28;20489;-66
2022/04/08 02:16:10;;;;;;;2.50;0.80;;;17.40;68.20;;;;;;5035204;28;20032;-66
2022/04/08 02:18:35;;;;;;;2.30;0.70;;;17.40;68.20;;;;;;5035410;28;20034;-66
2022/04/08 02:21:01;;;;;;;1.42;0.75;;;17.40;68.20;;;;;;5035276;28;20112;-66
2022/04/08 02:23:27;;;;;;;1.92;0.80;;;17.40;68.30;;;;;;5034068;28;20028;-66
2022/04/08 02:25:52;;;;;;;2.97;0.90;;;17.40;68.30;;;;;;5034121;28;20396;-66
2022/04/08 02:28:18;;;;;;;1.70;0.90;;;17.40;68.30;;;;;;5033455;28;20029;-66
2022/04/08 02:30:43;;;;;;;1.88;1.00;;;17.40;68.30;;;;;;5033996;28;20021;-66
2022/04/08 02:33:09;;;;;;;2.67;0.70;;;17.40;68.30;;;;;;5034783;28;20025;-66
2022/04/08 02:35:35;;;;;;;2.35;0.70;;;17.40;68.30;;;;;;5020733;28;20084;-66
2022/04/08 02:38:00;;;;;;;3.42;0.90;;;17.40;68.30;;;;;;5015301;28;20022;-66
2022/04/08 02:40:26;;;;;;;1.35;0.82;;;17.40;68.40;;;;;;5015077;28;20030;-66
2022/04/08 02:42:51;;;;;;;1.88;0.80;;;17.40;68.30;;;;;;5014954;28;20049;-66
2022/04/08 02:45:17;;;;;;;1.27;0.88;;;17.40;68.30;;;;;;5013563;28;20513;-66
2022/04/08 02:47:43;;;;;;;1.30;0.60;;;17.40;68.30;;;;;;5014934;28;20084;-66
2022/04/08 02:50:09;;;;;;;1.48;0.60;;;17.40;68.30;;;;;;5014929;28;20442;-66
2022/04/08 02:52:35;;;;;;;2.38;0.80;;;17.40;68.30;;;;;;5015026;28;20029;-66
2022/04/08 02:55:01;;;;;;;4.40;0.60;;;17.40;68.30;;;;;;5013715;28;20449;-66
2022/04/08 02:57:27;;;;;;;1.65;0.60;;;17.40;68.30;;;;;;5013243;28;20053;-66
2022/04/08 02:59:53;;;;;;;1.35;0.80;;;17.40;68.30;;;;;;5013681;28;20481;-66
2022/04/08 03:02:21;;;;;;;2.95;0.85;;;17.40;68.30;;;;;;5014560;28;20029;-66
2022/04/08 03:04:47;;;;;;;3.45;0.52;;;17.40;68.30;;;;;;5014765;28;20025;-66
2022/04/08 03:07:12;;;;;;;2.85;0.60;;;17.40;68.30;;;;;;5014616;28;20404;-66
2022/04/08 03:09:38;;;;;;;1.75;0.80;;;17.40;68.30;;;;;;5013414;28;20037;-66
2022/04/08 03:12:04;;;;;;;1.80;0.40;;;17.40;68.30;;;;;;5014680;28;20094;-66
2022/04/08 03:14:31;;;;;;;1.83;0.50;;;17.40;68.30;;;;;;5014280;28;20029;-66
2022/04/08 03:16:57;;;;;;;1.60;1.00;;;17.30;68.30;;;;;;5014488;28;20026;-66
2022/04/08 03:19:23;;;;;;;1.30;0.88;;;17.30;68.30;;;;;;5013249;28;20044;-66
2022/04/08 03:21:48;;;;;;;0.80;0.60;;;17.40;68.30;;;;;;5014227;28;20481;-66
2022/04/08 03:24:14;;;;;;;1.63;0.90;;;17.30;68.30;;;;;;5014218;28;20026;-66
2022/04/08 03:26:40;;;;;;;0.73;0.70;;;17.30;68.30;;;;;;5019627;28;20025;-66
2022/04/08 03:29:06;;;;;;;2.83;0.73;;;17.30;68.30;;;;;;5033965;28;20025;-66
2022/04/08 03:31:31;;;;;;;0.90;0.50;;;17.30;68.30;;;;;;5033833;28;20033;-66
2022/04/08 03:33:57;;;;;;;1.92;0.98;;;17.30;68.30;;;;;;5032849;28;20080;-66
2022/04/08 03:36:22;;;;;;;1.00;0.50;;;17.30;68.30;;;;;;5014025;28;20029;-66
2022/04/08 03:38:48;;;;;;;1.95;0.65;;;17.30;68.40;;;;;;5012971;28;20030;-66
2022/04/08 03:41:14;;;;;;;1.25;0.60;;;17.30;68.30;;;;;;5013851;28;20026;-66
2022/04/08 03:43:39;;;;;;;1.88;0.70;;;17.30;68.40;;;;;;5013935;28;20403;-66
2022/04/08 03:46:05;;;;;;;3.55;0.57;;;17.30;68.40;;;;;;5013668;28;20054;-66
2022/04/08 03:48:31;;;;;;;3.53;0.90;;;17.30;68.30;;;;;;5013909;28;20477;-66
2022/04/08 03:50:56;;;;;;;1.45;0.50;;;17.30;68.40;;;;;;5013988;28;20164;-66
2022/04/08 03:53:23;;;;;;;2.05;0.70;;;17.30;68.40;;;;;;5013862;28;20116;-66
2022/04/08 03:55:48;;;;;;;1.30;0.68;;;17.30;68.40;;;;;;5013706;28;20022;-66
2022/04/08 03:58:14;;;;;;;3.78;0.80;;;17.30;68.40;;;;;;5013481;28;20018;-66
2022/04/08 04:00:40;;;;;;;1.02;0.50;;;17.30;68.40;;;;;;5013894;28;20022;-66
2022/04/08 04:03:05;;;;;;;1.35;0.60;;;17.30;68.40;;;;;;5013734;28;20041;-66
2022/04/08 04:05:34;;;;;;;1.58;0.60;;;17.20;68.30;;;;;;5012256;28;20400;-66
2022/04/08 04:08:00;;;;;;;2.30;0.63;;;17.20;68.30;;;;;;5013657;28;20025;-66
2022/04/08 04:10:26;;;;;;;2.65;0.93;;;17.20;68.30;;;;;;5013083;28;20034;-66
2022/04/08 04:12:53;;;;;;;1.65;0.68;;;17.20;68.30;;;;;;5012536;28;20095;-66
2022/04/08 04:15:19;;;;;;;1.10;0.60;;;17.20;68.30;;;;;;5013180;28;20026;-66
2022/04/08 04:17:45;;;;;;;1.80;0.60;;;17.20;68.30;;;;;;5012341;28;20080;-66
2022/04/08 04:20:11;;;;;;;0.98;0.70;;;17.20;68.40;;;;;;5011785;28;20477;-66
2022/04/08 04:22:37;;;;;;;2.88;0.80;;;17.20;68.40;;;;;;5012077;28;20021;-66
2022/04/08 04:25:03;;;;;;;1.75;0.65;;;17.20;68.40;;;;;;5012912;28;20104;-66
2022/04/08 04:27:29;;;;;;;2.08;0.70;;;17.20;68.30;;;;;;5025046;28;20036;-66
2022/04/08 04:29:54;;;;;;;2.17;0.50;;;17.20;68.30;;;;;;5032899;28;20029;-66
2022/04/08 04:32:20;;;;;;;0.95;0.50;;;17.20;68.40;;;;;;5032791;28;20025;-66
2022/04/08 04:34:46;;;;;;;0.85;0.50;;;17.20;68.40;;;;;;5025279;28;20030;-66
2022/04/08 04:37:12;;;;;;;1.05;0.50;;;17.20;68.40;;;;;;5013183;28;20101;-66
2022/04/08 04:39:38;;;;;;;0.77;0.50;;;17.20;68.40;;;;;;5012754;28;20109;-66
2022/04/08 04:42:04;;;;;;;1.13;0.52;;;17.20;68.40;;;;;;5013132;28;20053;-66
2022/04/08 04:44:29;;;;;;;1.45;0.68;;;17.20;68.40;;;;;;5012498;28;20484;-66
2022/04/08 04:46:55;;;;;;;0.80;0.50;;;17.10;68.40;;;;;;5011653;28;20026;-66
2022/04/08 04:49:22;;;;;;;5.68;0.77;;;17.20;68.50;;;;;;5011766;28;20534;-66
2022/04/08 04:51:48;;;;;;;2.00;0.77;;;17.20;68.50;;;;;;5012672;28;20033;-66
2022/04/08 04:54:14;;;;;;;0.73;0.45;;;17.20;68.50;;;;;;5012433;28;20054;-66
2022/04/08 04:56:40;;;;;;;1.88;0.70;;;17.20;68.50;;;;;;5012924;28;20065;-66
2022/04/08 04:59:05;;;;;;;0.73;0.40;;;17.20;68.50;;;;;;5012688;28;20037;-66
2022/04/08 05:01:31;;;;;;;2.15;0.77;;;17.20;68.60;;;;;;5012651;28;20021;-66
2022/04/08 05:03:57;;;;;;;1.48;0.43;;;17.10;69.50;;;;;;5012815;28;20536;-66
2022/04/08 05:06:22;;;;;;;0.95;0.50;;;17.20;68.50;;;;;;5012763;28;20056;-66
2022/04/08 05:08:48;;;;;;;1.13;0.52;;;17.20;68.60;;;;;;5012521;28;20026;-66
2022/04/08 05:11:15;;;;;;;2.28;0.50;;;17.10;68.50;;;;;;5012659;28;20141;-66
2022/04/08 05:13:41;;;;;;;1.08;0.50;;;17.10;68.50;;;;;;5012616;28;20033;-66
2022/04/08 05:16:07;;;;;;;0.95;0.50;;;17.10;68.50;;;;;;5011560;28;20026;-66
2022/04/08 05:18:33;;;;;;;0.50;0.40;;;17.10;68.50;;;;;;5012528;28;20033;-66
2022/04/08 05:20:58;;;;;;;1.20;0.63;;;17.10;68.60;;;;;;5011208;28;20064;-66
2022/04/08 05:23:28;;;;;;;1.05;0.60;;;17.10;68.60;;;;;;5012204;28;20396;-66
2022/04/08 05:25:54;;;;;;;1.35;0.80;;;17.10;68.60;;;;;;5012571;28;20025;-68
2022/04/08 05:28:20;;;;;;;3.20;0.52;;;17.10;68.70;;;;;;5031276;28;20026;-68
2022/04/08 05:30:46;;;;;;;1.80;0.50;;;17.10;68.60;;;;;;5032145;28;20033;-67
2022/04/08 05:33:12;;;;;;;0.63;0.40;;;17.10;68.60;;;;;;5034746;28;20021;-67
2022/04/08 05:35:38;;;;;;;0.82;0.50;;;17.10;68.60;;;;;;5021162;28;20052;-68
2022/04/08 05:38:03;;;;;;;0.93;0.40;;;17.10;68.70;;;;;;5016282;28;20442;-67
2022/04/08 05:40:29;;;;;;;0.55;0.30;;;17.10;68.60;;;;;;5016232;28;20029;-67
2022/04/08 05:42:55;;;;;;;0.95;0.45;;;17.10;68.70;;;;;;5016385;28;20021;-67
2022/04/08 05:45:23;;;;;;;2.22;0.60;;;17.10;68.70;;;;;;5016089;28;20045;-68
2022/04/08 05:47:54;;;;;;;0.98;0.57;;;17.10;68.70;;;;;;5016202;28;20030;-67
2022/04/08 05:50:20;;;;;;;3.10;0.80;;;17.10;68.70;;;;;;5014880;28;20025;-67
2022/04/08 05:52:47;;;;;;;1.27;0.50;;;17.10;68.70;;;;;;5014887;28;20022;-67
2022/04/08 05:55:14;;;;;;;0.40;0.40;;;17.10;68.70;;;;;;5019440;28;20030;-67
2022/04/08 05:57:40;;;;;;;1.10;0.40;;;17.10;68.70;;;;;;5035424;28;20476;-65
2022/04/08 06:00:08;;;;;;;1.67;0.60;;;17.10;69.90;;;;;;5035983;28;20018;-67
2022/04/08 06:02:33;;;;;;;3.17;0.50;;;17.10;68.80;;;;;;5036221;28;20029;-67
2022/04/08 06:04:59;;;;;;;1.95;0.50;;;17.10;68.70;;;;;;5034845;28;20460;-67
2022/04/08 06:07:25;;;;;;;1.95;0.55;;;17.10;68.80;;;;;;5035786;28;20033;-67
2022/04/08 06:09:51;;;;;;;2.05;0.60;;;17.10;68.80;;;;;;5035946;28;20029;-67
2022/04/08 06:12:17;;;;;;;1.48;0.57;;;17.10;68.80;;;;;;5036011;28;20108;-67
2022/04/08 06:14:42;;;;;;;1.55;0.60;;;17.10;68.80;;;;;;5035926;28;20117;-67
2022/04/08 06:17:08;;;;;;;0.70;0.50;;;17.10;68.80;;;;;;5035858;28;20026;-67
2022/04/08 06:19:34;;;;;;;1.17;0.40;;;17.10;68.80;;;;;;5035980;28;20045;-68
2022/04/08 06:21:59;;;;;;;0.90;0.50;;;17.10;68.80;;;;;;5035589;28;20029;-68
2022/04/08 06:24:25;;;;;;;0.90;0.43;;;17.10;68.80;;;;;;5034485;28;20026;-67
2022/04/08 06:26:51;;;;;;;1.38;0.50;;;17.10;68.90;;;;;;5035774;28;20034;-67
2022/04/08 06:29:16;;;;;;;3.38;1.02;;;17.10;68.90;;;;;;5035899;28;20392;-67
2022/04/08 06:31:42;;;;;;;1.20;0.47;;;17.10;68.90;;;;;;5035543;28;20079;-67
2022/04/08 06:34:08;;;;;;;1.08;0.40;;;17.10;68.90;;;;;;5033291;28;20147;-67
2022/04/08 06:36:33;;;;;;;1.25;0.70;;;17.10;69.00;;;;;;5015505;28;20495;-67
2022/04/08 06:38:59;;;;;;;1.13;0.50;;;17.10;69.00;;;;;;5015845;28;20033;-67
2022/04/08 06:41:25;;;;;;;1.17;0.43;;;17.10;69.00;;;;;;5015818;28;20054;-67
2022/04/08 06:43:50;;;;;;;0.98;0.45;;;17.10;69.00;;;;;;5014235;28;20034;-67
2022/04/08 06:46:16;;;;;;;1.23;0.50;;;17.10;69.00;;;;;;5015329;28;20489;-67
2022/04/08 06:48:42;;;;;;;1.40;0.30;;;17.10;69.00;;;;;;5015159;28;20026;-67
2022/04/08 06:51:07;;;;;;;1.35;0.40;;;17.10;69.00;;;;;;5014193;28;20048;-67
2022/04/08 06:53:33;;;;;;;3.60;0.70;;;17.00;69.00;;;;;;5015305;28;20030;-67
2022/04/08 06:56:01;;;;;;;1.70;0.45;;;17.10;69.00;;;;;;5014028;28;20092;-67
2022/04/08 06:58:31;;;;;;;0.98;0.60;;;17.00;69.00;;;;;;5015200;28;20021;-67
2022/04/08 07:00:57;;;;;;;1.17;0.57;;;17.00;69.00;;;;;;5014973;28;20076;-67
2022/04/08 07:03:23;;;;;;;3.58;0.45;;;17.00;69.00;;;;;;5014026;28;20022;-67
2022/04/08 07:05:48;;;;;;;2.90;0.40;;;17.10;69.10;;;;;;5014972;28;20437;-67
2022/04/08 07:08:14;;;;;;;0.90;0.60;;;17.00;69.00;;;;;;5015450;28;20018;-68
2022/04/08 07:10:40;;;;;;;0.75;0.40;;;17.00;69.10;;;;;;5015132;28;20499;-68
2022/04/08 07:13:09;;;;;;;0.77;0.40;;;17.00;69.00;;;;;;5031605;28;20079;-67
2022/04/08 07:15:34;;;;;;;0.45;0.43;;;17.00;69.00;;;;;;5034162;28;20484;-68
2022/04/08 07:18:02;;;;;;;0.40;0.30;;;17.00;69.00;;;;;;5034303;28;20021;-67
2022/04/08 07:20:28;;;;;;;1.17;0.50;;;17.00;69.00;;;;;;5032867;28;20025;-68
2022/04/08 07:22:54;;;;;;;1.52;0.75;;;17.00;68.90;;;;;;5034215;28;20022;-68
2022/04/08 07:25:20;;;;;;;0.63;0.40;;;16.90;68.80;;;;;;5034217;28;20022;-68
2022/04/08 07:27:49;;;;;;;2.13;0.50;;;16.90;68.80;;;;;;5034011;28;20510;-68
2022/04/08 07:30:17;;;;;;;0.90;0.43;;;16.90;68.80;;;;;;5034009;28;20022;-68
2022/04/08 07:32:43;;;;;;;2.03;0.40;;;16.90;68.80;;;;;;5032882;28;20492;-68
2022/04/08 07:35:09;;;;;;;1.48;0.40;;;16.90;68.70;;;;;;5023008;28;20080;-68
2022/04/08 07:37:35;;;;;;;1.30;0.82;;;16.90;68.70;;;;;;5012864;28;20506;-68
2022/04/08 07:40:04;;;;;;;3.58;0.30;;;16.80;68.60;;;;;;5013018;28;20018;-68
2022/04/08 07:42:29;;;;;;;1.55;0.55;;;16.90;68.70;;;;;;5012842;28;20018;-68
2022/04/08 07:44:55;;;;;;;1.15;0.50;;;16.80;68.60;;;;;;5013900;28;20053;-68
2022/04/08 07:47:21;;;;;;;0.50;0.50;;;16.80;68.60;;;;;;5013684;28;20045;-68
2022/04/08 07:49:47;;;;;;;0.45;0.40;;;16.80;68.50;;;;;;5013667;28;20918;-68
2022/04/08 07:52:13;;;;;;;0.40;0.40;;;16.80;68.50;;;;;;5012761;28;20510;-68
2022/04/08 07:54:38;;;;;;;2.63;0.75;;;16.80;68.50;;;;;;5012218;28;20029;-68
2022/04/08 07:57:04;;;;;;;10.15;0.85;;;16.80;68.50;;;;;;5013589;28;20033;-68
2022/04/08 07:59:30;;;;;;;1.20;0.60;;;16.80;68.50;;;;;;5018628;28;20022;-68
2022/04/08 08:01:58;;;;;;;2.70;0.80;;;16.80;68.50;;;;;;5033132;28;20346;-68
2022/04/08 08:04:23;;;;;;;5.93;1.08;;;16.80;68.50;;;;;;5033973;28;20033;-68
2022/04/08 08:06:49;;;;;;;11.10;2.00;;;16.80;68.50;;;;;;5032660;28;20079;-68
2022/04/08 08:09:15;;;;;;;4.63;1.60;;;16.80;68.50;;;;;;5033179;28;20037;-68
2022/04/08 08:11:40;;;;;;;8.73;1.40;;;16.80;68.50;;;;;;5032851;28;20100;-68
2022/04/08 08:14:06;;;;;;;8.80;1.20;;;16.80;68.50;;;;;;5031812;28;20029;-68
2022/04/08 08:16:32;;;;;;;7.05;1.50;;;16.80;68.50;;;;;;5031597;28;20100;-68
2022/04/08 08:18:57;;;;;;;6.53;1.60;;;16.80;68.50;;;;;;5031879;28;20030;-68
2022/04/08 08:21:24;;;;;;;9.25;1.92;;;16.80;68.50;;;;;;5031980;28;20029;-68
2022/04/08 08:23:50;;;;;;;7.93;1.42;;;16.80;69.50;;;;;;5031602;28;20448;-68
2022/04/08 08:26:16;;;;;;;6.95;1.70;;;16.80;68.50;;;;;;5030589;28;20045;-68
2022/04/08 08:28:41;;;;;;;7.20;1.75;;;16.80;68.50;;;;;;5032669;28;20111;-68
2022/04/08 08:31:07;;;;;;;8.18;1.88;;;16.80;68.50;;;;;;5032629;28;20036;-68
2022/04/08 08:33:33;;;;;;;8.63;1.75;;;16.80;68.40;;;;;;5031500;28;20476;-68
2022/04/08 08:35:58;;;;;;;9.98;2.13;;;16.80;68.40;;;;;;5029183;28;20025;-68
2022/04/08 08:38:24;;;;;;;6.78;1.60;;;16.80;68.40;;;;;;5032078;28;20036;-68
2022/04/08 08:40:50;;;;;;;9.25;1.60;;;16.80;68.40;;;;;;5064108;28;20064;-68
2022/04/08 08:43:17;;;;;;;9.20;1.67;;;16.80;68.30;;;;;;5047592;28;20028;-67
2022/04/08 08:45:45;;;;;;;6.00;2.03;;;16.70;68.30;;;;;;5063509;28;20041;-67
2022/04/08 08:48:11;;;;;;;5.25;1.60;;;16.70;68.30;;;;;;5032014;28;20029;-67
2022/04/08 08:50:37;;;;;;;6.88;1.35;;;16.70;68.30;;;;;;5047496;28;20040;-67
2022/04/08 08:53:03;;;;;;;5.72;1.38;;;16.70;68.20;;;;;;5047436;28;20091;-67
2022/04/08 08:55:29;;;;;;;5.65;1.95;;;16.70;68.20;;;;;;5032421;28;20025;-67
2022/04/08 08:57:54;;;;;;;6.00;1.83;;;16.70;68.20;;;;;;5032094;28;20475;-67
2022/04/08 09:00:22;;;;;;;5.10;1.50;;;16.70;68.20;;;;;;5031958;28;20096;-67
2022/04/08 09:02:48;;;;;;;5.78;1.70;;;16.70;68.20;;;;;;5031099;28;20029;-67
2022/04/08 09:05:16;;;;;;;5.47;1.58;;;16.70;68.20;;;;;;5031322;28;20037;-67
2022/04/08 09:07:42;;;;;;;12.50;2.30;;;16.70;68.20;;;;;;5031477;28;20029;-68
2022/04/08 09:10:08;;;;;;;7.47;1.67;;;16.70;68.20;;;;;;5031199;28;20030;-67
2022/04/08 09:12:33;;;;;;;9.13;1.65;;;16.70;68.10;;;;;;5032487;28;20509;-68
2022/04/08 09:14:59;;;;;;;5.93;1.65;;;16.60;69.10;;;;;;5031115;28;20453;-67
2022/04/08 09:17:26;;;;;;;4.85;1.55;;;16.70;68.10;;;;;;5032231;28;20018;-67
2022/04/08 09:19:53;;;;;;;5.25;1.60;;;16.60;68.10;;;;;;5031115;28;20017;-66
2022/04/08 09:22:20;;;;;;;2.97;1.17;;;16.70;68.10;;;;;;5030979;28;20021;-66
2022/04/08 09:24:45;;;;;;;5.65;1.58;;;16.70;68.10;;;;;;5032277;28;20021;-66
2022/04/08 09:27:11;;;;;;;10.60;1.67;;;16.60;68.00;;;;;;5032195;28;20029;-68
2022/04/08 09:29:37;;;;;;;6.20;1.63;;;16.60;68.00;;;;;;5032037;28;20022;-68
2022/04/08 09:32:14;;;;;;;6.93;1.27;;;16.60;68.00;;;;;;5032153;28;20490;-68
2022/04/08 09:34:43;;;;;;;9.93;1.77;;;16.70;68.00;;;;;;5025311;28;20159;-68
2022/04/08 09:37:12;;;;;;;4.38;1.35;;;16.60;68.00;;;;;;5012302;28;20033;-68
2022/04/08 09:39:56;;;;;;;3.35;1.38;;;16.60;68.00;;;;;;5011240;28;20025;-68
2022/04/08 09:42:44;;;;;;;6.53;1.50;;;16.60;67.80;;;;;;5012409;28;20105;-68
2022/04/08 09:45:10;;;;;;;6.15;1.33;;;16.60;67.80;;;;;;5010834;28;20050;-68
2022/04/08 09:47:37;;;;;;;6.05;1.45;;;16.60;68.00;;;;;;5011213;28;20109;-67
2022/04/08 09:50:03;;;;;;;5.28;1.80;;;16.60;68.00;;;;;;5011235;28;20030;-68
2022/04/08 09:52:29;;;;;;;5.45;1.60;;;16.60;68.00;;;;;;5012382;28;20084;-68
2022/04/08 09:54:55;;;;;;;5.85;1.30;;;16.60;68.00;;;;;;5010942;28;20018;-66
2022/04/08 09:57:21;;;;;;;6.38;1.65;;;16.60;68.00;;;;;;5011195;28;20075;-68
2022/04/08 09:59:50;;;;;;;7.82;1.67;;;16.60;67.90;;;;;;5012123;28;20025;-66
2022/04/08 10:02:15;;;;;;;3.75;1.42;;;16.60;67.90;;;;;;5010918;28;20101;-71
2022/04/08 10:04:42;;;;;;;4.25;1.20;;;16.60;67.90;;;;;;5015916;28;20108;-70
2022/04/08 10:07:07;;;;;;;5.90;1.17;;;16.60;67.90;;;;;;5026220;28;20103;-73
2022/04/08 10:09:37;;;;;;;2.80;1.30;;;16.60;67.90;;;;;;5030790;28;20081;-69
2022/04/08 10:12:12;;;;;;;6.25;1.38;;;16.60;67.80;;;;;;5030152;28;20120;-72
2022/04/08 10:14:50;;;;;;;6.47;1.30;;;16.60;67.90;;;;;;5028741;28;20033;-69
2022/04/08 10:17:15;;;;;;;3.33;1.20;;;16.60;67.90;;;;;;5032111;28;20029;-69
2022/04/08 10:19:41;;;;;;;5.50;1.52;;;16.60;67.80;;;;;;5033743;28;20018;-68
2022/04/08 10:22:18;;;;;;;2.92;1.17;;;16.60;67.80;;;;;;5035537;28;20026;-71
2022/04/08 10:24:54;;;;;;;3.58;1.27;;;16.60;67.70;;;;;;5035906;28;20052;-71
2022/04/08 10:27:30;;;;;;;5.00;1.15;;;16.60;67.60;;;;;;5034211;28;20033;-74
2022/04/08 10:29:56;;;;;;;5.05;1.15;;;16.60;67.60;;;;;;5034376;28;20021;-73
2022/04/08 10:32:22;;;;;;;1.85;0.95;;;16.50;67.70;;;;;;5034449;28;20045;-73
2022/04/08 10:34:49;;;;;;;5.43;1.48;;;16.60;68.80;;;;;;5034486;28;20017;-74
2022/04/08 10:37:24;;;;;;;2.53;0.88;;;16.60;67.70;;;;;;5034222;28;20491;-74
2022/04/08 10:40:01;;;;;;;24.00;1.50;;;16.60;67.70;;;;;;5034263;28;20420;-74
2022/04/08 10:42:28;;;;;;;3.25;1.00;;;16.60;67.70;;;;;;5035299;28;20025;-74
2022/04/08 10:44:54;;;;;;;3.03;0.85;;;16.60;67.70;;;;;;5033843;28;20068;-73
2022/04/08 10:47:22;;;;;;;3.22;1.13;;;16.50;67.70;;;;;;5039665;28;20025;-74
2022/04/08 10:49:53;;;;;;;4.40;0.90;;;16.60;67.70;;;;;;5035251;28;20025;-74
2022/04/08 10:52:23;;;;;;;5.03;1.20;;;16.60;67.60;;;;;;5035467;28;20029;-74
2022/04/08 10:54:49;;;;;;;2.45;1.10;;;16.60;67.60;;;;;;5067117;28;20022;-74
2022/04/08 10:57:27;;;;;;;2.60;0.65;;;16.60;67.60;;;;;;5035067;28;20083;-74
2022/04/08 10:59:54;;;;;;;3.47;0.90;;;16.60;67.60;;;;;;5035134;28;20032;-74
2022/04/08 11:02:20;;;;;;;3.00;0.95;;;16.50;67.50;;;;;;5067146;28;20369;-74
2022/04/08 11:04:46;;;;;;;1.85;1.00;;;16.50;67.50;;;;;;5035437;28;20025;-74
2022/04/08 11:07:13;;;;;;;4.43;0.80;;;16.50;67.50;;;;;;5035192;28;20076;-74
2022/04/08 11:09:39;;;;;;;5.60;0.85;;;16.60;67.50;;;;;;5035048;28;20030;-73
2022/04/08 11:12:05;;;;;;;2.83;0.85;;;16.60;67.50;;;;;;5035213;28;20032;-75
2022/04/08 11:14:31;;;;;;;3.30;1.00;;;16.50;67.40;;;;;;5034963;28;20037;-73
2022/04/08 11:16:57;;;;;;;2.78;0.93;;;16.60;67.50;;;;;;5034601;28;20014;-72
2022/04/08 11:19:22;;;;;;;2.28;0.70;;;16.60;67.50;;;;;;5035327;28;20395;-72
2022/04/08 11:21:48;;;;;;;1.88;0.90;;;16.60;67.50;;;;;;5036432;28;20014;-67
2022/04/08 11:24:15;;;;;;;2.53;0.65;;;16.50;67.40;;;;;;5034857;28;20032;-68
2022/04/08 11:26:50;;;;;;;2.30;0.77;;;16.60;67.90;;;;;;5034495;28;20028;-68
2022/04/08 11:29:16;;;;;;;1.17;0.70;;;16.70;67.80;;;;;;5034265;28;20026;-68
2022/04/08 11:31:43;;;;;;;3.60;0.60;;;16.70;67.60;;;;;;5033330;28;20029;-68
2022/04/08 11:34:09;;;;;;;1.88;0.77;;;16.70;67.50;;;;;;5030259;28;20033;-68
2022/04/08 11:36:35;;;;;;;1.25;0.60;;;16.70;67.40;;;;;;5029724;28;20079;-67
2022/04/08 11:39:01;;;;;;;2.95;0.90;;;16.70;67.40;;;;;;5032594;28;20030;-67
2022/04/08 11:41:28;;;;;;;2.15;0.77;;;16.70;67.40;;;;;;5033562;28;20021;-67
2022/04/08 11:43:54;;;;;;;2.70;0.70;;;16.70;67.30;;;;;;5033815;28;20030;-67
2022/04/08 11:46:19;;;;;;;0.85;0.50;;;16.70;67.30;;;;;;5032539;28;20042;-68
2022/04/08 11:48:45;;;;;;;2.28;0.47;;;16.70;68.30;;;;;;5030703;28;20026;-68
2022/04/08 11:51:11;;;;;;;1.38;0.60;;;16.70;67.20;;;;;;5032002;28;20021;-68
2022/04/08 11:53:46;;;;;;;1.83;0.70;;;16.70;67.30;;;;;;5032480;28;20155;-68
2022/04/08 11:56:25;;;;;;;2.90;0.50;;;16.70;67.10;;;;;;5032370;28;20436;-69
2022/04/08 11:59:00;;;;;;;1.10;0.50;;;16.70;67.20;;;;;;5033400;28;20022;-69
2022/04/08 12:01:36;;;;;;;1.30;0.70;;;16.70;67.20;;;;;;5032360;28;20096;-70
2022/04/08 12:04:10;;;;;;;3.00;0.77;;;16.70;67.10;;;;;;5033563;28;20030;-70
2022/04/08 12:06:45;;;;;;;1.15;0.50;;;16.70;67.20;;;;;;5032524;28;20033;-70
2022/04/08 12:09:15;;;;;;;4.13;0.73;;;16.70;67.10;;;;;;5033075;28;20436;-68
2022/04/08 12:11:42;;;;;;;1.20;0.52;;;16.70;67.10;;;;;;5031924;28;20026;-68
2022/04/08 12:14:08;;;;;;;0.82;0.63;;;16.70;67.20;;;;;;5032065;28;20029;-68
2022/04/08 12:16:34;;;;;;;1.83;0.40;;;16.70;67.20;;;;;;5032201;28;20028;-71
2022/04/08 12:19:00;;;;;;;0.82;0.30;;;16.70;67.10;;;;;;5033165;28;20022;-68
2022/04/08 12:21:27;;;;;;;0.82;0.40;;;16.70;67.10;;;;;;5032195;28;20021;-72
2022/04/08 12:23:54;;;;;;;2.88;0.57;;;16.70;67.10;;;;;;5031451;28;20021;-69
2022/04/08 12:26:19;;;;;;;3.25;0.57;;;16.70;67.10;;;;;;5033021;28;20024;-69
2022/04/08 12:28:45;;;;;;;1.25;0.60;;;16.70;67.10;;;;;;5031783;28;20029;-69
2022/04/08 12:31:12;;;;;;;2.22;0.50;;;16.70;67.10;;;;;;5032734;28;20492;-69
2022/04/08 12:33:38;;;;;;;1.55;0.68;;;16.70;67.10;;;;;;5031201;28;20434;-69
2022/04/08 12:36:04;;;;;;;1.10;0.40;;;16.70;67.10;;;;;;5014438;28;20096;-69
2022/04/08 12:38:30;;;;;;;0.98;0.30;;;16.70;67.10;;;;;;5011021;28;20065;-69
2022/04/08 12:40:57;;;;;;;0.82;0.40;;;16.70;67.00;;;;;;5012516;28;20022;-69
2022/04/08 12:43:22;;;;;;;2.65;0.57;;;16.70;67.00;;;;;;5012873;28;20025;-69